Startpagina
METAR-TAF:

METAR-TAF

Vliegvelden :

Internationale Luchthaven Nội Bài

Hanoi, Vietnam

breedte: 21-01N, lengte: 105-48E, hoogte: 6 m

Actueel weer

Dit bericht is 27 minuten geleden gemaakt, om 21:30 UTC
Wind 6 kt uit het oosten
Temperatuur 27°C
Vochtigheid 94%
Druk 1000 hPa
Zicht: 7000 m
Weinig wolken op 900 ft
Verspreide wolken op 2500 ft

METAR: VVNB 172130Z 08006KT 7000 FEW009 SCT025 27/26 Q1000 NOSIG

Tijdstip: 04:57 (21:57 UTC)

Verwachting

Dit bericht is 4 uur en het 57 minuten geleden gemaakt, om 17:00 UTC
Verwachting geldig van 17 om 18 UTC tot 18 om 18 UTC
Wind 8 kt uit het zuidoosten
Zicht 10 km of meer
Verspreide wolken op 1500 ft
Tijdelijke
van 17 om 22 UTC tot 18 om 01 UTC
Zicht: 4000 m
Gebroken wolken op 1300 ft
Weinig wolken op 2700 ft, Cumulonimbus.
regenbuien

TAF: VVNB 171700Z 1718/1818 14008KT 9999 SCT015 TEMPO 1722/1801 4000 SHRA BKN013 FEW027CB

Waarnemingen en weersverwachtingen van meer dan 4000 vliegvelden (METAR en TAF).

De beschikbare stations zijn de gele en rode punten op de kaart.

Ga met uw muis naar het station om de naam te zien.

Klik dan om waarnemingen en weersverwachtingen te zien.

kaart wijzigen: klik op de groene knoppen met een zwart kruis om in te zoomen, op de groene knop met een streepje om uit te zoomen of op de groene pijlen voor aangrenzende kaarten.


METAR-TAF: